Time;durP1;ratioP1;P1;durP2;ratioP2;P2;SDS_P1;SDS_P2;PMS_P1;PMS_P2;Temp;Humidity;BMP_temperature;BMP_pressure;BME280_temperature;BME280_humidity;BME280_pressure;Samples;Min_cycle;Max_cycle;Signal;HPM_P1;HPM_P2
2022/10/14 00:01:20;;;;;;;9.88;8.85;;;;;;;22.30;56.29;101285.41;5038846;28;20049;-81
2022/10/14 00:03:48;;;;;;;9.02;7.85;;;;;;;22.30;56.20;101288.13;5038050;28;20060;-81
2022/10/14 00:06:28;;;;;;;10.38;9.25;;;;;;;22.32;56.12;101286.13;5036332;28;20054;-80
2022/10/14 00:09:00;;;;;;;9.57;8.55;;;;;;;22.30;56.15;101291.66;5037280;28;20057;-81
2022/10/14 00:11:29;;;;;;;10.85;9.52;;;;;;;22.31;56.22;101290.66;5036069;28;20060;-81
2022/10/14 00:14:00;;;;;;;9.80;8.77;;;;;;;22.30;56.19;101293.50;5038203;28;20045;-81
2022/10/14 00:16:33;;;;;;;9.68;8.60;;;;;;;22.30;56.04;101288.13;5037811;28;20042;-81
2022/10/14 00:19:00;;;;;;;;;;;;;;;22.30;56.06;101290.81;5038583;28;20422;-82
2022/10/14 00:21:29;;;;;;;10.32;8.68;;;;;;;22.30;56.03;101283.56;5036293;28;19943;-81
2022/10/14 00:23:57;;;;;;;10.18;9.18;;;;;;;22.29;56.06;101281.88;5038294;28;20045;-80
2022/10/14 00:26:33;;;;;;;10.82;9.80;;;;;;;22.29;56.11;101281.88;5036539;28;20040;-81
2022/10/14 00:29:02;;;;;;;10.57;8.55;;;;;;;22.28;56.07;101280.19;5038058;28;20045;-81
2022/10/14 00:31:31;;;;;;;9.95;8.98;;;;;;;22.28;56.15;101274.78;5035857;28;20057;-81
2022/10/14 00:33:58;;;;;;;12.10;8.98;;;;;;;22.29;56.00;101283.72;5035940;28;20084;-82
2022/10/14 00:36:26;;;;;;;9.73;8.73;;;;;;;22.28;55.98;101280.19;5037829;28;20053;-82
2022/10/14 00:38:54;;;;;;;11.43;8.85;;;;;;;22.28;56.04;101279.28;5035912;28;20072;-81
2022/10/14 00:41:27;;;;;;;9.40;8.48;;;;;;;22.27;56.01;101275.75;5037359;28;20049;-82
2022/10/14 00:43:57;;;;;;;12.18;9.00;;;;;;;22.27;55.99;101275.75;5035798;28;20398;-82
2022/10/14 00:46:27;;;;;;;10.75;9.40;;;;;;;22.29;55.96;101286.41;5036543;28;20042;-82
2022/10/14 00:49:05;;;;;;;10.48;9.05;;;;;;;22.27;55.91;101281.16;5037220;28;20050;-82
2022/10/14 00:51:34;;;;;;;10.70;9.18;;;;;;;22.27;55.84;101274.91;5036300;28;20485;-82
2022/10/14 00:54:03;;;;;;;10.35;9.00;;;;;;;22.28;55.84;101279.28;5036563;28;20048;-82
2022/10/14 00:56:30;;;;;;;10.07;8.68;;;;;;;22.27;55.93;101275.75;5035297;28;20072;-82
2022/10/14 00:59:02;;;;;;;10.65;9.63;;;;;;;22.27;55.75;101283.00;5037289;28;20061;-83
2022/10/14 01:01:29;;;;;;;10.35;9.10;;;;;;;22.25;55.70;101275.06;5037491;28;20396;-83
2022/10/14 01:03:56;;;;;;;10.48;9.05;;;;;;;22.27;55.84;101274.91;5037190;28;20046;-82
2022/10/14 01:06:52;;;;;;;12.68;10.50;;;;;;;22.26;55.68;101270.50;5037755;28;20057;-83
2022/10/14 01:09:27;;;;;;;14.55;9.57;;;;;;;22.26;55.75;101270.50;5036903;28;20048;-82
2022/10/14 01:12:13;;;;;;;10.52;9.30;;;;;;;22.26;55.80;101267.81;5035528;28;20481;-83
2022/10/14 01:15:14;;;;;;;10.13;9.13;;;;;;;22.26;55.78;101275.91;5035122;28;20058;-81
2022/10/14 01:18:25;;;;;;;10.93;9.32;;;;;;;22.24;55.62;101262.56;5034553;28;20406;-81
2022/10/14 01:21:11;;;;;;;12.15;9.35;;;;;;;22.24;55.71;101257.19;4982046;28;20056;-81
2022/10/14 01:24:15;;;;;;;10.48;9.48;;;;;;;22.24;55.58;101257.19;4997887;28;20054;-82
2022/10/14 01:27:13;;;;;;;9.40;8.50;;;;;;;22.25;55.58;101260.72;5009892;28;20061;-82
2022/10/14 01:29:59;;;;;;;12.77;9.68;;;;;;;22.24;55.61;101253.59;4997671;28;20057;-82
2022/10/14 01:32:47;;;;;;;10.48;9.38;;;;;;;22.24;55.68;101254.47;4998439;28;20583;-82
2022/10/14 01:35:22;;;;;;;9.95;9.07;;;;;;;22.24;55.45;101248.22;4998325;28;20072;-82
2022/10/14 01:38:00;;;;;;;10.43;9.30;;;;;;;22.23;55.65;101241.13;5014422;28;20432;-82
2022/10/14 01:40:38;;;;;;;12.35;9.52;;;;;;;22.22;55.61;101242.97;4997831;28;20061;-82
2022/10/14 01:43:06;;;;;;;11.45;8.88;;;;;;;22.23;55.46;101239.28;4996893;28;20054;-81
2022/10/14 01:45:36;;;;;;;11.70;10.43;;;;;;;22.22;55.52;101242.97;5014627;28;20064;-82
2022/10/14 01:48:05;;;;;;;10.98;9.63;;;;;;;22.23;55.55;101233.88;4997384;28;20046;-81
2022/10/14 01:50:35;;;;;;;12.55;9.80;;;;;;;22.23;55.54;101233.03;5014597;28;20061;-81
2022/10/14 01:53:11;;;;;;;12.05;9.95;;;;;;;22.21;55.50;101225.94;4998620;28;20057;-81
2022/10/14 01:55:44;;;;;;;12.18;9.88;;;;;;;22.21;55.41;101230.47;5000764;28;20054;-81
2022/10/14 01:58:13;;;;;;;;;;;;;;;22.20;55.36;101229.63;5036236;28;20053;-81
2022/10/14 02:00:40;;;;;;;12.27;9.77;;;;;;;22.21;55.31;101233.19;5036182;28;19921;-82
2022/10/14 02:03:10;;;;;;;11.38;10.18;;;;;;;22.20;55.27;101235.03;5033956;28;20056;-81
2022/10/14 02:05:43;;;;;;;11.32;10.02;;;;;;;22.21;55.29;101235.88;5035346;28;20053;-81
2022/10/14 02:08:35;;;;;;;11.40;10.27;;;;;;;22.20;55.31;101235.03;5034290;28;20057;-82
2022/10/14 02:11:16;;;;;;;11.55;9.75;;;;;;;22.20;55.43;101220.66;5036266;28;20049;-82
2022/10/14 02:14:16;;;;;;;10.05;8.98;;;;;;;22.19;55.40;101218.97;5034161;28;20052;-81
2022/10/14 02:17:08;;;;;;;10.40;9.13;;;;;;;22.18;55.29;101214.56;5017739;28;20041;-83
2022/10/14 02:19:48;;;;;;;12.50;9.45;;;;;;;22.18;55.39;101212.72;5034055;28;20065;-82
2022/10/14 02:22:48;;;;;;;12.45;9.20;;;;;;;22.19;55.40;101209.03;5035842;28;20052;-81
2022/10/14 02:25:22;;;;;;;9.68;8.40;;;;;;;22.18;55.27;101209.19;5013779;28;20062;-83
2022/10/14 02:27:52;;;;;;;11.52;9.75;;;;;;;22.19;55.35;101210.88;4997375;28;20050;-81
2022/10/14 02:30:20;;;;;;;12.32;9.05;;;;;;;22.19;55.16;101213.56;4997020;28;20061;-81
2022/10/14 02:32:58;;;;;;;10.80;9.80;;;;;;;22.18;55.26;101211.88;5013402;28;20392;-81
2022/10/14 02:35:29;;;;;;;9.48;8.48;;;;;;;22.17;55.23;101212.88;4997110;28;20049;-81
2022/10/14 02:37:57;;;;;;;10.45;9.27;;;;;;;22.19;55.15;101217.13;4997961;28;20049;-82
2022/10/14 02:40:34;;;;;;;10.30;8.80;;;;;;;22.17;55.17;101213.72;5013883;28;20445;-82
2022/10/14 02:43:02;;;;;;;12.07;10.40;;;;;;;22.16;55.08;101209.34;5013476;28;20058;-81
2022/10/14 02:45:33;;;;;;;10.13;9.02;;;;;;;22.17;55.20;101202.94;4997481;28;20045;-81
2022/10/14 02:48:00;;;;;;;10.57;9.52;;;;;;;22.17;55.18;101202.09;4997689;28;20089;-81
2022/10/14 02:50:28;;;;;;;10.63;9.52;;;;;;;22.17;55.18;101202.94;4997154;28;20061;-81
2022/10/14 02:52:56;;;;;;;19.95;9.70;;;;;;;22.17;55.17;101196.69;5014039;28;20046;-80
2022/10/14 02:55:23;;;;;;;11.25;9.02;;;;;;;22.16;55.13;101194.97;4997260;28;20049;-81
2022/10/14 02:57:50;;;;;;;10.20;9.00;;;;;;;22.15;55.06;101196.81;5013863;28;20046;-81
2022/10/14 03:00:19;;;;;;;12.07;9.13;;;;;;;22.14;55.12;101200.53;4986371;28;20057;-81
2022/10/14 03:02:46;;;;;;;10.77;9.27;;;;;;;22.15;55.21;101199.53;5035988;28;20041;-81
2022/10/14 03:05:16;;;;;;;11.45;9.95;;;;;;;22.15;55.15;101204.06;5033668;28;20049;-81
2022/10/14 03:07:43;;;;;;;10.63;9.27;;;;;;;22.16;55.03;101216.53;5033059;28;20049;-81
2022/10/14 03:10:13;;;;;;;10.23;8.68;;;;;;;22.14;55.14;101214.00;5017497;28;20053;-81
2022/10/14 03:12:41;;;;;;;10.77;9.65;;;;;;;22.14;55.11;101218.56;5033129;28;20052;-81
2022/10/14 03:15:17;;;;;;;10.43;8.88;;;;;;;22.15;55.02;101204.91;5018458;28;20519;-81
2022/10/14 03:17:46;;;;;;;12.15;9.05;;;;;;;22.15;55.04;101217.53;5036718;28;20061;-81
2022/10/14 03:20:19;;;;;;;10.20;8.43;;;;;;;22.14;54.98;101214.00;5036926;28;20057;-81
2022/10/14 03:22:51;;;;;;;11.02;8.98;;;;;;;22.14;54.94;101219.41;5037452;28;20057;-82
2022/10/14 03:25:18;;;;;;;11.90;8.85;;;;;;;22.14;54.94;101213.16;5021050;28;20057;-81
2022/10/14 03:27:56;;;;;;;9.60;8.70;;;;;;;22.13;55.05;101206.91;5039175;28;20042;-81
2022/10/14 03:30:35;;;;;;;10.68;9.55;;;;;;;22.14;54.84;101210.47;5037436;28;20053;-81
2022/10/14 03:33:10;;;;;;;10.55;9.20;;;;;;;22.14;54.95;101211.31;5037154;28;20053;-81
2022/10/14 03:36:16;;;;;;;10.27;9.27;;;;;;;22.15;54.86;101217.53;5026391;28;20049;-81
2022/10/14 03:38:46;;;;;;;9.88;8.95;;;;;;;22.12;54.95;101215.97;5036582;28;20528;-81
2022/10/14 03:41:39;;;;;;;;;;;;;;;22.13;54.91;101214.16;5034404;28;20056;-81
2022/10/14 03:44:09;;;;;;;9.95;8.93;;;;;;;22.11;54.91;101203.47;5036919;28;19928;-80
2022/10/14 03:46:42;;;;;;;11.50;8.90;;;;;;;22.12;54.93;101207.88;5037374;28;20041;-81
2022/10/14 03:49:11;;;;;;;10.57;9.55;;;;;;;22.12;54.87;101202.50;5036658;28;20382;-81
2022/10/14 03:51:38;;;;;;;10.25;9.00;;;;;;;22.13;55.02;101196.13;5036992;28;20053;-80
2022/10/14 03:54:13;;;;;;;10.38;9.27;;;;;;;22.11;54.82;101195.38;5021407;28;20408;-81
2022/10/14 03:56:41;;;;;;;10.00;9.00;;;;;;;22.11;54.93;101186.44;5036609;28;20064;-82
2022/10/14 03:59:08;;;;;;;9.85;8.85;;;;;;;22.11;55.04;101198.06;5020226;28;20520;-82
2022/10/14 04:01:43;;;;;;;11.63;9.27;;;;;;;22.12;54.89;101205.19;5036692;28;20520;-82
2022/10/14 04:04:19;;;;;;;;;;;;;;;22.10;55.00;101193.69;5036511;28;20057;-79
2022/10/14 04:06:46;;;;;;;11.07;9.07;;;;;;;22.11;55.01;101200.75;5019557;28;19921;-80
2022/10/14 04:09:16;;;;;;;11.85;9.35;;;;;;;22.11;54.95;101203.47;5035723;28;20523;-78
2022/10/14 04:11:44;;;;;;;10.70;7.97;;;;;;;22.11;54.97;101194.53;5037560;28;20056;-76
2022/10/14 04:14:29;;;;;;;10.57;8.55;;;;;;;22.11;54.94;101199.91;5035196;28;20053;-80
2022/10/14 04:16:58;;;;;;;9.93;8.82;;;;;;;22.10;55.00;101196.38;5036144;28;20429;-80
2022/10/14 04:19:26;;;;;;;10.48;8.48;;;;;;;22.11;54.96;101191.81;5037915;28;20042;-79
2022/10/14 04:21:54;;;;;;;10.75;9.68;;;;;;;22.09;54.84;101194.69;5037594;28;20041;-80
2022/10/14 04:24:23;;;;;;;9.73;8.52;;;;;;;22.10;54.77;101190.13;5020201;28;20417;-80
2022/10/14 04:26:56;;;;;;;12.27;10.05;;;;;;;22.10;54.68;101195.53;5035245;28;20505;-80
2022/10/14 04:29:36;;;;;;;12.70;9.90;;;;;;;22.10;54.72;101198.22;5034677;28;20050;-80
2022/10/14 04:32:11;;;;;;;9.32;8.23;;;;;;;22.09;54.62;101189.28;5020153;28;20053;-80
2022/10/14 04:34:38;;;;;;;9.77;8.38;;;;;;;22.09;54.65;101189.28;5037452;28;20496;-80
2022/10/14 04:37:07;;;;;;;13.40;9.30;;;;;;;22.09;54.73;101188.44;5035985;28;20416;-80
2022/10/14 04:39:59;;;;;;;10.90;9.77;;;;;;;22.09;54.68;101202.75;5037586;28;20064;-79
2022/10/14 04:42:29;;;;;;;11.73;9.27;;;;;;;22.08;54.67;101209.16;5036551;28;20058;-80
2022/10/14 04:45:00;;;;;;;10.00;9.00;;;;;;;22.09;54.56;101200.06;5035158;28;20057;-81
2022/10/14 04:47:50;;;;;;;9.63;8.63;;;;;;;22.08;54.51;101189.41;5036147;28;20381;-80
2022/10/14 04:50:21;;;;;;;10.63;8.65;;;;;;;22.07;54.56;101191.25;5035840;28;20050;-81
2022/10/14 04:53:08;;;;;;;9.70;8.52;;;;;;;22.07;54.66;101193.09;5044327;28;20072;-81
2022/10/14 04:55:48;;;;;;;9.23;8.30;;;;;;;22.07;54.67;101199.34;5035278;28;20045;-81
2022/10/14 04:58:16;;;;;;;13.32;10.20;;;;;;;22.07;54.54;101196.66;5034907;28;20046;-81
2022/10/14 05:00:49;;;;;;;10.35;8.82;;;;;;;22.06;54.68;101188.72;5035304;28;20049;-81
2022/10/14 05:03:30;;;;;;;9.60;8.48;;;;;;;22.09;54.52;101193.81;5034992;28;20515;-80
2022/10/14 05:05:58;;;;;;;9.68;8.68;;;;;;;22.07;54.47;101182.31;5035449;28;20378;-81
2022/10/14 05:08:26;;;;;;;9.30;8.38;;;;;;;22.07;54.60;101191.25;5035049;28;20045;-81
2022/10/14 05:10:55;;;;;;;9.23;8.23;;;;;;;22.05;54.59;101182.47;5035257;28;20053;-80
2022/10/14 05:13:35;;;;;;;10.27;9.10;;;;;;;22.05;54.64;101185.16;5035017;28;20413;-80
2022/10/14 05:16:07;;;;;;;10.25;9.25;;;;;;;22.05;54.39;101185.16;5019920;28;20049;-80
2022/10/14 05:18:35;;;;;;;9.65;8.65;;;;;;;22.05;54.40;101184.31;5035720;28;20508;-80
2022/10/14 05:21:09;;;;;;;12.32;9.02;;;;;;;22.04;54.40;101183.47;5020194;28;20053;-81
2022/10/14 05:23:59;;;;;;;10.07;8.82;;;;;;;22.04;54.36;101180.78;5032718;28;20385;-81
2022/10/14 05:26:30;;;;;;;9.93;8.93;;;;;;;22.04;54.44;101186.16;5034918;28;20057;-80
2022/10/14 05:29:00;;;;;;;9.95;8.27;;;;;;;22.03;54.38;101181.75;5036590;28;20041;-81
2022/10/14 05:31:29;;;;;;;9.60;8.70;;;;;;;22.04;54.40;101190.69;5034449;28;20064;-81
2022/10/14 05:34:16;;;;;;;9.60;8.50;;;;;;;22.04;54.54;101185.28;5036122;28;20052;-80
2022/10/14 05:36:44;;;;;;;10.38;9.38;;;;;;;22.04;54.44;101187.97;5018801;28;20053;-80
2022/10/14 05:39:12;;;;;;;9.80;8.80;;;;;;;22.04;54.28;101186.16;5033761;28;20053;-80
2022/10/14 05:41:39;;;;;;;10.93;9.43;;;;;;;22.03;54.29;101195.22;5034031;28;20401;-80
2022/10/14 05:44:09;;;;;;;10.13;8.68;;;;;;;22.02;54.47;101193.53;5033838;28;20057;-81
2022/10/14 05:46:38;;;;;;;11.35;9.75;;;;;;;22.03;54.31;101188.97;5034371;28;20065;-81
2022/10/14 05:49:05;;;;;;;9.35;8.45;;;;;;;22.02;54.37;101189.97;5035185;28;20400;-81
2022/10/14 05:51:37;;;;;;;11.40;9.32;;;;;;;22.02;54.36;101198.91;5034795;28;20056;-81
2022/10/14 05:54:12;;;;;;;10.00;8.95;;;;;;;22.02;54.45;101198.91;5035426;28;20072;-82
2022/10/14 05:56:42;;;;;;;9.35;8.45;;;;;;;22.01;54.42;101199.06;5035107;28;20056;-83
2022/10/14 05:59:10;;;;;;;8.70;7.82;;;;;;;22.01;54.31;101202.63;5034192;28;20049;-84
2022/10/14 06:01:39;;;;;;;10.10;8.05;;;;;;;22.01;54.36;101197.22;5034493;28;20516;-83
2022/10/14 06:04:06;;;;;;;9.82;8.27;;;;;;;22.01;54.37;101199.91;5034181;28;20053;-83
2022/10/14 06:06:34;;;;;;;12.93;8.75;;;;;;;22.00;54.39;101195.53;5036202;28;20072;-83
2022/10/14 06:09:01;;;;;;;10.45;9.45;;;;;;;22.01;54.32;101193.69;5033818;28;20045;-82
2022/10/14 06:11:32;;;;;;;11.23;9.35;;;;;;;22.00;54.35;101198.22;5035853;28;20071;-82
2022/10/14 06:14:00;;;;;;;10.30;9.20;;;;;;;22.00;54.26;101202.75;5034343;28;20049;-82
2022/10/14 06:16:27;;;;;;;8.93;8.02;;;;;;;22.01;54.32;101202.63;5033959;28;20049;-82
2022/10/14 06:18:55;;;;;;;11.18;9.13;;;;;;;22.00;54.27;101198.22;5036067;28;20473;-82
2022/10/14 06:21:22;;;;;;;12.63;8.82;;;;;;;22.01;54.31;101202.63;5034384;28;20054;-83
2022/10/14 06:23:49;;;;;;;10.10;9.10;;;;;;;22.01;54.29;101204.47;5036409;28;20041;-83
2022/10/14 06:26:17;;;;;;;11.52;9.32;;;;;;;22.01;54.33;101204.47;5036347;28;20056;-83
2022/10/14 06:28:45;;;;;;;10.05;9.07;;;;;;;22.00;54.32;101200.91;5035808;28;20045;-83
2022/10/14 06:31:12;;;;;;;9.07;8.13;;;;;;;22.01;54.33;101204.47;5035765;28;20053;-83
2022/10/14 06:33:42;;;;;;;10.48;9.38;;;;;;;22.01;54.22;101204.47;5036123;28;20050;-82
2022/10/14 06:36:10;;;;;;;10.27;9.30;;;;;;;21.99;54.37;101209.97;5035537;28;20485;-81
2022/10/14 06:38:38;;;;;;;9.77;8.77;;;;;;;22.01;54.27;101220.63;5035736;28;20049;-81
2022/10/14 06:41:05;;;;;;;9.75;8.75;;;;;;;22.01;54.37;101216.09;5035110;28;20408;-81
2022/10/14 06:43:34;;;;;;;9.90;8.90;;;;;;;22.00;54.46;101217.09;5035233;28;20045;-81
2022/10/14 06:46:03;;;;;;;9.70;8.80;;;;;;;22.01;54.47;101218.78;5035204;28;20046;-82
2022/10/14 06:48:30;;;;;;;9.88;8.90;;;;;;;22.00;54.41;101218.91;5034944;28;20049;-81
2022/10/14 06:51:00;;;;;;;9.55;8.43;;;;;;;22.01;54.39;101228.72;5035903;28;20057;-84
2022/10/14 06:53:28;;;;;;;11.30;8.85;;;;;;;21.99;54.63;101223.47;5039782;28;20046;-81
2022/10/14 06:56:00;;;;;;;9.73;8.13;;;;;;;22.00;54.52;101227.88;5039079;28;20052;-79
2022/10/14 06:58:29;;;;;;;12.48;8.40;;;;;;;22.01;54.64;101224.19;5039576;28;20437;-80
2022/10/14 07:01:02;;;;;;;9.23;8.32;;;;;;;22.01;54.68;101224.19;5038915;28;20049;-79
2022/10/14 07:03:30;;;;;;;11.23;8.02;;;;;;;22.02;54.12;101225.88;5038848;28;20052;-79
2022/10/14 07:05:57;;;;;;;12.10;9.80;;;;;;;22.02;53.55;101227.72;5039039;28;20048;-78
2022/10/14 07:08:24;;;;;;;12.48;11.23;;;;;;;22.01;53.08;101234.13;5038215;28;20049;-79
2022/10/14 07:10:52;;;;;;;15.23;12.43;;;;;;;21.98;52.93;101225.31;5039580;28;20104;-82
2022/10/14 07:13:19;;;;;;;18.77;11.15;;;;;;;21.99;52.81;101228.84;5039508;28;20056;-81
2022/10/14 07:15:49;;;;;;;13.23;10.85;;;;;;;21.97;52.45;101223.59;5038734;28;20064;-82
2022/10/14 07:18:16;;;;;;;19.20;13.98;;;;;;;21.93;51.53;101222.19;5039024;28;20057;-81
2022/10/14 07:20:46;;;;;;;18.83;15.05;;;;;;;21.88;50.96;101223.59;5037370;28;20049;-81
2022/10/14 07:23:14;;;;;;;20.30;16.90;;;;;;;21.81;50.74;101226.00;5039348;28;20049;-81
2022/10/14 07:25:41;;;;;;;20.63;15.43;;;;;;;21.76;50.47;101225.56;5039210;28;20054;-79
2022/10/14 07:28:09;;;;;;;19.08;16.17;;;;;;;21.73;50.63;101225.84;5037091;28;20057;-79
2022/10/14 07:30:36;;;;;;;18.30;15.95;;;;;;;21.69;50.55;101227.09;5023430;28;20042;-79
2022/10/14 07:33:04;;;;;;;21.05;16.08;;;;;;;21.66;50.55;101238.16;5017493;28;20049;-80
2022/10/14 07:35:31;;;;;;;21.92;15.90;;;;;;;21.64;50.75;101238.28;5017469;28;20061;-79
2022/10/14 07:37:59;;;;;;;21.15;13.25;;;;;;;21.63;51.33;101230.31;5019001;28;20060;-79
2022/10/14 07:40:26;;;;;;;21.65;12.95;;;;;;;21.63;51.17;101236.59;5019050;28;20041;-78
2022/10/14 07:42:54;;;;;;;15.38;12.40;;;;;;;21.64;51.10;101242.84;5018647;28;20113;-79
2022/10/14 07:45:21;;;;;;;17.90;15.35;;;;;;;21.63;50.87;101241.97;5018462;28;20046;-80
2022/10/14 07:47:49;;;;;;;18.33;13.32;;;;;;;21.62;50.98;101245.63;5000770;28;20061;-80
2022/10/14 07:50:19;;;;;;;18.30;15.15;;;;;;;21.61;51.04;101243.94;5018257;28;20069;-78
2022/10/14 07:52:46;;;;;;;18.70;13.60;;;;;;;21.60;51.18;101244.09;5018280;28;20053;-79
2022/10/14 07:55:13;;;;;;;16.25;13.80;;;;;;;21.61;51.15;101248.47;5018343;28;20056;-79
2022/10/14 07:57:41;;;;;;;13.82;11.55;;;;;;;21.61;51.41;101257.41;5018386;28;20046;-78
2022/10/14 08:00:09;;;;;;;15.50;12.23;;;;;;;21.61;50.81;101254.72;5016861;28;20053;-79
2022/10/14 08:02:39;;;;;;;13.57;11.65;;;;;;;21.62;51.28;101261.81;5017937;28;20050;-79
2022/10/14 08:05:06;;;;;;;12.20;10.90;;;;;;;21.65;51.52;101260.69;5016814;28;20058;-79
2022/10/14 08:07:53;;;;;;;16.02;11.13;;;;;;;21.66;51.61;101262.41;5018165;28;20053;-79
2022/10/14 08:10:21;;;;;;;14.20;11.05;;;;;;;21.67;51.72;101270.34;5017963;28;20042;-79
2022/10/14 08:12:49;;;;;;;13.10;9.40;;;;;;;21.68;51.79;101266.66;5018188;28;20056;-79
2022/10/14 08:15:17;;;;;;;11.07;9.70;;;;;;;21.71;51.97;101269.09;5017092;28;20485;-78
2022/10/14 08:17:44;;;;;;;16.60;10.15;;;;;;;21.73;51.97;101266.25;5018044;28;20061;-78
2022/10/14 08:20:11;;;;;;;11.68;9.38;;;;;;;21.74;51.75;101259.88;5017675;28;20053;-78
2022/10/14 08:22:39;;;;;;;10.63;9.45;;;;;;;21.75;51.80;101253.47;5016478;28;20050;-79
2022/10/14 08:25:06;;;;;;;8.95;8.00;;;;;;;21.77;52.24;101259.59;5017543;28;20050;-79
2022/10/14 08:27:34;;;;;;;10.48;8.95;;;;;;;21.78;52.26;101260.44;5017570;28;20094;-79
2022/10/14 08:30:02;;;;;;;16.83;12.30;;;;;;;21.79;51.88;101256.75;5017627;28;20049;-79
2022/10/14 08:32:37;;;;;;;15.85;11.57;;;;;;;21.78;51.79;101260.44;5016556;28;20389;-79
2022/10/14 08:35:05;;;;;;;13.80;11.02;;;;;;;21.80;51.96;101259.34;5017485;28;20386;-75
2022/10/14 08:37:32;;;;;;;13.40;11.23;;;;;;;21.80;51.93;101248.56;5015897;28;20058;-79
2022/10/14 08:40:00;;;;;;;14.15;9.75;;;;;;;21.81;52.41;101252.94;5018106;28;20054;-78
2022/10/14 08:42:58;;;;;;;11.50;9.45;;;;;;;21.83;52.49;101250.09;5017901;28;20068;-79
2022/10/14 08:45:36;;;;;;;12.63;10.27;;;;;;;21.83;52.38;101250.94;5002127;28;20058;-83
2022/10/14 08:48:16;;;;;;;13.90;11.02;;;;;;;21.83;51.90;101250.09;5017660;28;20046;-82
2022/10/14 08:50:48;;;;;;;12.63;9.77;;;;;;;21.83;51.81;101261.72;5017503;28;20512;-79
2022/10/14 08:53:21;;;;;;;12.68;10.10;;;;;;;21.85;52.15;101267.84;5017610;28;20049;-80
2022/10/14 08:55:54;;;;;;;17.63;9.95;;;;;;;21.85;52.50;101257.06;5017285;28;20061;-79
2022/10/14 08:58:21;;;;;;;;;;;;;;;21.86;52.73;101266.00;5017718;28;20058;-79
2022/10/14 09:00:51;;;;;;;9.30;8.35;;;;;;;21.87;53.07;101256.91;5017150;28;19928;-79
2022/10/14 09:03:32;;;;;;;10.00;9.00;;;;;;;21.87;53.04;101252.38;5016316;28;20060;-80
2022/10/14 09:06:05;;;;;;;17.40;12.25;;;;;;;21.86;51.95;101252.53;5016127;28;20061;-79
2022/10/14 09:08:40;;;;;;;16.73;11.45;;;;;;;21.87;51.69;101259.63;5015856;28;20057;-78
2022/10/14 09:11:29;;;;;;;14.68;11.13;;;;;;;21.88;51.78;101258.66;5017489;28;20046;-78
2022/10/14 09:14:01;;;;;;;18.20;12.38;;;;;;;21.87;51.84;101256.91;5016743;28;20050;-80
2022/10/14 09:16:33;;;;;;;13.88;10.38;;;;;;;21.89;51.95;101263.03;5016870;28;20053;-78
2022/10/14 09:19:04;;;;;;;13.23;9.63;;;;;;;21.88;52.41;101259.50;5017123;28;20050;-79
2022/10/14 09:21:38;;;;;;;10.30;8.15;;;;;;;21.89;52.60;101266.59;5017741;28;20042;-78
2022/10/14 09:24:26;;;;;;;12.60;8.35;;;;;;;21.88;52.81;101256.78;5016763;28;20386;-79
2022/10/14 09:27:15;;;;;;;11.95;8.25;;;;;;;21.90;53.16;101260.19;5016571;28;20061;-79
2022/10/14 09:29:48;;;;;;;10.23;9.20;;;;;;;21.91;53.08;101258.34;5016107;28;20050;-79
2022/10/14 09:32:39;;;;;;;11.13;9.55;;;;;;;21.91;52.72;101256.50;5014653;28;20050;-79
2022/10/14 09:35:30;;;;;;;11.80;10.10;;;;;;;21.90;52.78;101267.44;5016688;28;20045;-79
2022/10/14 09:37:58;;;;;;;11.18;9.27;;;;;;;21.93;52.72;101269.84;5013283;28;20046;-79
2022/10/14 09:40:28;;;;;;;11.38;8.57;;;;;;;21.92;52.84;101263.63;5016430;28;20060;-79
2022/10/14 09:43:01;;;;;;;11.75;9.32;;;;;;;21.93;52.83;101259.06;5016680;28;20481;-79
2022/10/14 09:45:52;;;;;;;14.00;10.68;;;;;;;21.92;52.59;101260.06;5015420;28;20049;-79
2022/10/14 09:48:39;;;;;;;13.40;9.75;;;;;;;21.92;52.59;101258.22;5016582;28;20042;-78
2022/10/14 09:51:09;;;;;;;9.00;8.05;;;;;;;21.92;52.91;101260.91;5000129;28;20049;-79
2022/10/14 09:53:44;;;;;;;9.65;8.52;;;;;;;21.93;52.96;101257.22;5015479;28;20415;-79
2022/10/14 09:56:12;;;;;;;10.77;8.88;;;;;;;21.93;53.02;101259.91;5016877;28;20050;-79
2022/10/14 09:58:51;;;;;;;10.70;9.25;;;;;;;21.93;52.97;101257.22;5014286;28;20421;-79
2022/10/14 10:01:21;;;;;;;11.80;9.48;;;;;;;21.95;52.83;101257.94;4997614;28;20065;-78
2022/10/14 10:03:50;;;;;;;15.10;10.70;;;;;;;21.93;52.85;101246.44;5015982;28;20052;-79
2022/10/14 10:06:21;;;;;;;13.93;10.57;;;;;;;21.93;52.79;101253.69;5015875;28;20042;-79
2022/10/14 10:08:54;;;;;;;12.30;10.35;;;;;;;21.93;52.66;101248.28;5014214;28;20401;-78
2022/10/14 10:11:36;;;;;;;15.10;10.18;;;;;;;21.94;52.90;101244.59;5016676;28;20417;-79
2022/10/14 10:14:31;;;;;;;10.07;8.85;;;;;;;21.93;53.13;101232.97;5014392;28;20053;-79
2022/10/14 10:17:11;;;;;;;11.18;9.05;;;;;;;21.94;53.16;101236.50;5013863;28;20066;-78
2022/10/14 10:19:44;;;;;;;11.30;9.15;;;;;;;21.94;53.01;101234.66;5017171;28;20049;-78
2022/10/14 10:22:19;;;;;;;16.55;12.85;;;;;;;21.94;52.69;101231.13;5015321;28;20416;-77
2022/10/14 10:25:11;;;;;;;15.77;12.65;;;;;;;21.94;52.51;101228.41;5015612;28;20052;-77
2022/10/14 10:27:46;;;;;;;13.25;11.68;;;;;;;21.93;52.61;101227.56;5015534;28;20048;-77
2022/10/14 10:30:17;;;;;;;16.13;11.88;;;;;;;21.93;52.61;101219.50;5015489;28;20053;-78
2022/10/14 10:33:09;;;;;;;12.50;10.68;;;;;;;21.94;52.79;101223.03;5014136;28;20412;-77
2022/10/14 10:35:54;;;;;;;12.82;11.15;;;;;;;21.94;52.92;101220.34;5015477;28;20058;-77
2022/10/14 10:38:29;;;;;;;13.20;10.88;;;;;;;21.94;53.24;101221.19;5015791;28;20049;-78
2022/10/14 10:41:05;;;;;;;10.18;8.93;;;;;;;21.94;53.07;101228.41;5014396;28;20373;-78
2022/10/14 10:43:52;;;;;;;15.20;10.10;;;;;;;21.94;53.17;101218.50;5014619;28;20046;-77
2022/10/14 10:46:28;;;;;;;13.80;10.02;;;;;;;21.94;53.22;101225.72;5013881;28;20045;-77
2022/10/14 10:49:42;;;;;;;13.93;11.20;;;;;;;21.96;53.14;101221.06;5015182;28;20050;-77
2022/10/14 10:52:43;;;;;;;14.05;11.82;;;;;;;21.94;52.69;101218.50;4935847;29;20052;-77
2022/10/14 10:55:26;;;;;;;14.00;11.75;;;;;;;21.95;52.84;101219.34;4937020;29;20066;-77
2022/10/14 10:57:56;;;;;;;16.30;12.30;;;;;;;21.94;52.56;101225.72;4935880;29;20086;-77
2022/10/14 11:00:23;;;;;;;14.30;10.90;;;;;;;21.95;52.64;101222.03;4936822;29;20059;-77
2022/10/14 11:03:09;;;;;;;12.98;9.60;;;;;;;21.95;52.87;101208.56;4935595;29;20062;-77
2022/10/14 11:06:01;;;;;;;11.40;10.20;;;;;;;21.95;52.76;101204.00;4934924;29;20056;-77
2022/10/14 11:14:39;;;;;;;14.88;11.00;;;;;;;21.96;52.48;101202.19;4920293;29;20531;-81
2022/10/14 11:17:22;;;;;;;10.93;9.82;;;;;;;21.95;52.46;101193.22;4935472;29;20134;-77
2022/10/14 11:20:04;;;;;;;12.93;9.05;;;;;;;21.95;52.44;101189.69;4935069;29;20495;-78
2022/10/14 11:22:40;;;;;;;12.15;10.10;;;;;;;21.95;52.58;101187.84;4935190;29;20460;-78
2022/10/14 11:25:21;;;;;;;11.43;10.25;;;;;;;21.95;52.30;101178.91;4935565;29;20454;-78
2022/10/14 11:27:52;;;;;;;16.13;11.90;;;;;;;21.97;52.01;101176.94;4936758;29;20135;-78
2022/10/14 11:30:43;;;;;;;14.75;10.98;;;;;;;21.96;51.91;101170.69;5007111;28;20133;-78
2022/10/14 11:33:32;;;;;;;11.52;9.80;;;;;;;21.96;52.00;101170.69;5009189;28;20413;-77
2022/10/14 11:36:17;;;;;;;12.32;10.27;;;;;;;21.96;52.14;101161.75;5015498;28;20054;-78
2022/10/14 11:38:57;;;;;;;11.98;10.77;;;;;;;21.96;52.08;101157.22;5019141;28;20057;-78
2022/10/14 11:41:41;;;;;;;15.10;11.75;;;;;;;21.96;51.86;101156.38;5017197;28;20046;-77
2022/10/14 11:44:31;;;;;;;13.77;11.30;;;;;;;21.96;51.74;101142.88;5018730;28;20057;-77
2022/10/14 11:47:04;;;;;;;16.02;12.88;;;;;;;21.96;51.97;101148.28;5019926;28;20057;-77
2022/10/14 11:49:46;;;;;;;14.27;11.50;;;;;;;21.96;51.83;101137.50;5018505;28;20053;-77
2022/10/14 11:52:20;;;;;;;16.42;12.10;;;;;;;21.95;51.61;101143.84;5019192;28;20042;-78
2022/10/14 11:54:54;;;;;;;14.82;11.43;;;;;;;21.95;51.92;101144.69;5018003;28;20421;-80